createdAt,value
2022-09-11T00:01:43.414Z,89.20
2022-09-11T00:04:11.864Z,90.75
2022-09-11T00:06:40.907Z,91.40
2022-09-11T00:09:10.538Z,94.20
2022-09-11T00:11:41.820Z,93.20
2022-09-11T00:14:11.657Z,86.53
2022-09-11T00:16:43.000Z,91.47
2022-09-11T00:19:14.119Z,91.70
2022-09-11T00:21:42.411Z,85.88
2022-09-11T00:24:12.271Z,84.05
2022-09-11T00:26:41.301Z,81.68
2022-09-11T00:29:09.388Z,76.18
2022-09-11T00:31:37.541Z,83.68
2022-09-11T00:34:07.035Z,75.22
2022-09-11T00:36:37.553Z,79.07
2022-09-11T00:39:06.045Z,76.40
2022-09-11T00:41:38.310Z,78.85
2022-09-11T00:44:08.986Z,85.15
2022-09-11T00:46:41.338Z,80.22
2022-09-11T00:49:26.905Z,88.32
2022-09-11T00:51:59.562Z,95.95
2022-09-11T00:54:32.560Z,99.68
2022-09-11T00:57:06.078Z,94.70
2022-09-11T00:59:36.126Z,93.15
2022-09-11T01:02:04.229Z,106.10
2022-09-11T01:04:32.504Z,109.38
2022-09-11T01:07:02.421Z,95.13
2022-09-11T01:09:33.841Z,94.35
2022-09-11T01:12:09.212Z,96.28
2022-09-11T01:14:45.374Z,86.28
2022-09-11T01:17:25.740Z,81.15
2022-09-11T01:20:15.691Z,76.72
2022-09-11T01:23:02.389Z,74.75
2022-09-11T01:25:44.337Z,69.72
2022-09-11T01:28:16.916Z,77.65
2022-09-11T01:30:48.198Z,75.90
2022-09-11T01:33:26.546Z,70.68
2022-09-11T01:35:58.727Z,77.55
2022-09-11T01:38:33.697Z,76.22
2022-09-11T01:41:08.627Z,79.78
2022-09-11T01:43:42.911Z,73.22
2022-09-11T01:46:18.550Z,75.28
2022-09-11T01:48:49.081Z,77.05
2022-09-11T01:51:23.534Z,91.18
2022-09-11T01:53:54.433Z,90.03
2022-09-11T01:56:26.420Z,87.20
2022-09-11T01:59:00.798Z,97.28
2022-09-11T02:01:34.170Z,87.25
2022-09-11T02:04:10.665Z,90.97
2022-09-11T02:06:47.498Z,86.57
2022-09-11T02:09:20.500Z,95.07
2022-09-11T02:11:52.160Z,92.97
2022-09-11T02:14:28.094Z,98.72
2022-09-11T02:17:04.729Z,108.72
2022-09-11T02:19:32.864Z,99.93
2022-09-11T02:22:01.154Z,109.93
2022-09-11T02:24:29.844Z,114.53
2022-09-11T02:27:02.028Z,126.35
2022-09-11T02:29:34.358Z,113.90
2022-09-11T02:32:03.878Z,103.88
2022-09-11T02:34:37.023Z,117.30
2022-09-11T02:37:16.044Z,114.60
2022-09-11T02:40:03.863Z,114.60
2022-09-11T02:42:48.489Z,126.68
2022-09-11T02:45:34.475Z,130.93
2022-09-11T02:48:15.151Z,131.10
2022-09-11T02:50:50.193Z,137.82
2022-09-11T02:53:26.910Z,144.10
2022-09-11T02:56:01.718Z,150.50
2022-09-11T02:58:37.969Z,140.52
2022-09-11T03:01:10.058Z,165.43
2022-09-11T03:03:40.449Z,182.13
2022-09-11T03:06:15.133Z,171.32
2022-09-11T03:08:43.153Z,168.32
2022-09-11T03:11:12.180Z,149.95
2022-09-11T03:13:40.457Z,157.75
2022-09-11T03:16:12.300Z,162.32
2022-09-11T03:18:41.901Z,164.50
2022-09-11T03:21:11.380Z,158.18
2022-09-11T03:23:40.834Z,168.73
2022-09-11T03:26:09.391Z,160.27
2022-09-11T03:28:39.845Z,168.90
2022-09-11T03:31:10.498Z,170.68
2022-09-11T03:33:40.333Z,177.40
2022-09-11T03:36:11.235Z,181.10
2022-09-11T03:38:39.868Z,183.23
2022-09-11T03:41:09.447Z,191.35
2022-09-11T03:43:37.794Z,173.77
2022-09-11T03:46:07.282Z,178.20
2022-09-11T03:48:36.438Z,183.68
2022-09-11T03:51:06.520Z,180.68
2022-09-11T03:53:36.124Z,179.43
2022-09-11T03:56:06.389Z,188.15
2022-09-11T03:58:41.694Z,191.45
2022-09-11T04:01:12.771Z,191.18
2022-09-11T04:03:43.533Z,209.82
2022-09-11T04:06:18.650Z,219.57
2022-09-11T04:08:47.821Z,190.55
2022-09-11T04:11:16.511Z,198.80
2022-09-11T04:13:45.644Z,212.65
2022-09-11T04:16:19.146Z,219.15
2022-09-11T04:18:53.438Z,210.45
2022-09-11T04:21:23.846Z,222.32
2022-09-11T04:23:56.501Z,278.42
2022-09-11T04:26:29.624Z,272.38
2022-09-11T04:29:04.755Z,276.80
2022-09-11T04:31:36.303Z,267.85
2022-09-11T04:34:04.995Z,258.35
2022-09-11T04:36:38.519Z,279.42
2022-09-11T04:39:10.690Z,256.95
2022-09-11T04:41:39.354Z,279.50
2022-09-11T04:44:07.296Z,267.75
2022-09-11T04:46:42.841Z,294.88
2022-09-11T04:49:11.800Z,270.48
2022-09-11T04:51:42.587Z,295.42
2022-09-11T04:54:16.543Z,268.77
2022-09-11T04:56:45.460Z,265.80
2022-09-11T04:59:16.046Z,263.33
2022-09-11T05:01:52.189Z,285.60
2022-09-11T05:04:25.297Z,241.10
2022-09-11T05:06:57.276Z,247.88
2022-09-11T05:09:27.689Z,249.32
2022-09-11T05:14:44.230Z,220.07
2022-09-11T05:17:13.740Z,218.02
2022-09-11T05:19:44.276Z,205.23
2022-09-11T05:22:15.897Z,215.23
2022-09-11T05:24:48.465Z,197.65
2022-09-11T05:27:18.254Z,196.80
2022-09-11T05:29:46.405Z,168.75
2022-09-11T05:32:16.163Z,166.75
2022-09-11T05:34:45.706Z,146.02
2022-09-11T05:37:18.293Z,154.98
2022-09-11T05:39:49.464Z,146.77
2022-09-11T05:42:17.810Z,130.65
2022-09-11T05:44:50.808Z,131.52
2022-09-11T05:47:18.868Z,130.75
2022-09-11T05:49:50.749Z,115.95
2022-09-11T05:52:20.344Z,120.72
2022-09-11T05:54:48.880Z,114.00
2022-09-11T05:57:17.788Z,116.03
2022-09-11T05:59:45.775Z,119.78
2022-09-11T06:02:14.177Z,121.93
2022-09-11T06:04:47.923Z,123.10
2022-09-11T06:07:16.056Z,124.93
2022-09-11T06:09:49.368Z,113.43
2022-09-11T06:12:19.076Z,116.68
2022-09-11T06:14:49.258Z,107.63
2022-09-11T06:17:17.595Z,108.70
2022-09-11T06:19:46.098Z,106.47
2022-09-11T06:22:16.464Z,101.75
2022-09-11T06:24:47.067Z,102.10
2022-09-11T06:27:18.316Z,96.03
2022-09-11T06:29:49.613Z,91.63
2022-09-11T06:32:20.751Z,92.20
2022-09-11T06:34:49.108Z,89.43
2022-09-11T06:37:17.093Z,87.93
2022-09-11T06:39:45.806Z,85.15
2022-09-11T06:42:22.147Z,83.18
2022-09-11T06:44:54.014Z,83.63
2022-09-11T06:47:21.981Z,86.90
2022-09-11T06:49:50.491Z,81.38
2022-09-11T06:52:30.356Z,84.43
2022-09-11T06:55:13.353Z,79.05
2022-09-11T06:57:48.113Z,76.32
2022-09-11T07:00:20.372Z,66.57
2022-09-11T07:02:48.568Z,64.93
2022-09-11T07:05:17.108Z,66.47
2022-09-11T07:07:48.798Z,74.20
2022-09-11T07:10:17.816Z,81.57
2022-09-11T07:12:49.095Z,72.03
2022-09-11T07:15:17.245Z,67.38
2022-09-11T07:17:45.259Z,62.70
2022-09-11T07:20:15.268Z,59.05
2022-09-11T07:22:45.552Z,53.22
2022-09-11T07:25:15.888Z,46.08
2022-09-11T07:27:44.179Z,48.35
2022-09-11T07:30:14.970Z,43.63
2022-09-11T07:32:45.342Z,34.72
2022-09-11T07:35:21.287Z,36.42
2022-09-11T07:37:53.103Z,31.33
2022-09-11T07:40:25.843Z,28.45
2022-09-11T07:42:54.388Z,26.48
2022-09-11T07:45:24.360Z,27.20
2022-09-11T07:47:53.407Z,24.63
2022-09-11T07:50:24.323Z,26.05
2022-09-11T07:52:52.607Z,22.50
2022-09-11T07:55:21.578Z,26.00
2022-09-11T07:57:51.942Z,24.48
2022-09-11T08:00:20.416Z,30.55
2022-09-11T08:02:50.043Z,27.15
2022-09-11T08:05:28.231Z,28.50
2022-09-11T08:07:58.895Z,23.90
2022-09-11T08:10:28.447Z,21.23
2022-09-11T08:13:00.098Z,20.73
2022-09-11T08:15:33.403Z,19.80
2022-09-11T08:18:04.685Z,16.73
2022-09-11T08:20:33.456Z,16.77
2022-09-11T08:23:02.555Z,14.18
2022-09-11T08:25:31.022Z,13.15
2022-09-11T08:28:01.672Z,11.18
2022-09-11T08:30:30.053Z,7.90
2022-09-11T08:32:58.490Z,6.20
2022-09-11T08:35:28.326Z,4.38
2022-09-11T08:37:56.589Z,5.95
2022-09-11T08:40:24.911Z,2.17
2022-09-11T08:42:56.730Z,5.05
2022-09-11T08:45:31.082Z,2.45
2022-09-11T08:48:01.399Z,1.52
2022-09-11T08:50:37.393Z,1.83
2022-09-11T08:53:12.656Z,2.42
2022-09-11T08:55:47.855Z,4.40
2022-09-11T08:58:26.533Z,3.92
2022-09-11T09:01:03.920Z,5.07
2022-09-11T09:03:47.041Z,4.68
2022-09-11T09:06:40.556Z,3.60
2022-09-11T09:09:18.132Z,3.17
2022-09-11T09:11:55.913Z,2.40
2022-09-11T09:14:45.526Z,3.92
2022-09-11T09:17:19.303Z,2.40
2022-09-11T09:22:22.979Z,3.60
2022-09-11T09:24:53.626Z,3.63
2022-09-11T09:27:28.229Z,4.30
2022-09-11T09:30:02.214Z,3.60
2022-09-11T09:32:33.113Z,3.47
2022-09-11T09:35:06.434Z,3.67
2022-09-11T09:37:37.354Z,4.22
2022-09-11T09:40:10.374Z,5.32
2022-09-11T09:43:11.064Z,4.60
2022-09-11T09:45:53.045Z,1.73
2022-09-11T09:48:21.627Z,1.60
2022-09-11T09:50:49.772Z,1.65
2022-09-11T09:53:30.533Z,2.78
2022-09-11T09:56:00.831Z,1.35
2022-09-11T09:58:34.192Z,1.20
2022-09-11T10:03:31.169Z,2.28
2022-09-11T10:06:00.238Z,1.15
2022-09-11T10:08:33.439Z,0.95
2022-09-11T10:11:03.758Z,0.75
2022-09-11T10:13:34.141Z,1.75
2022-09-11T10:16:04.976Z,3.17
2022-09-11T10:18:37.607Z,2.78
2022-09-11T10:23:49.980Z,5.50
2022-09-11T10:26:20.951Z,3.20
2022-09-11T10:28:49.728Z,1.40
2022-09-11T10:31:18.747Z,2.83
2022-09-11T10:33:52.004Z,1.67
2022-09-11T10:36:24.706Z,0.93
2022-09-11T10:38:55.337Z,0.70
2022-09-11T10:41:25.028Z,2.65
2022-09-11T10:43:58.754Z,0.90
2022-09-11T10:46:38.369Z,0.88
2022-09-11T10:49:17.826Z,1.25
2022-09-11T10:52:00.170Z,0.80
2022-09-11T10:54:45.873Z,0.93
2022-09-11T10:57:22.237Z,2.10
2022-09-11T11:00:01.044Z,1.20
2022-09-11T11:02:33.088Z,3.65
2022-09-11T11:05:04.842Z,2.22
2022-09-11T11:07:53.734Z,1.17
2022-09-11T11:10:35.886Z,1.08
2022-09-11T11:13:14.581Z,0.93
2022-09-11T11:16:01.042Z,2.25
2022-09-11T11:18:59.972Z,1.00
2022-09-11T11:21:42.754Z,1.33
2022-09-11T11:24:23.644Z,1.67
2022-09-11T11:27:05.835Z,1.92
2022-09-11T11:30:04.205Z,1.25
2022-09-11T11:32:58.661Z,0.90
2022-09-11T11:35:36.278Z,1.55
2022-09-11T11:38:12.461Z,2.10
2022-09-11T11:40:47.086Z,1.30
2022-09-11T11:43:18.465Z,0.75
2022-09-11T11:45:50.811Z,1.05
2022-09-11T11:48:25.375Z,0.57
2022-09-11T11:50:55.397Z,0.75
2022-09-11T11:53:26.718Z,3.00
2022-09-11T11:56:07.893Z,2.13
2022-09-11T11:58:48.482Z,3.42
2022-09-11T12:01:23.529Z,1.35
2022-09-11T12:04:00.499Z,2.85
2022-09-11T12:06:29.269Z,2.42
2022-09-11T12:08:58.247Z,1.80
2022-09-11T12:11:31.058Z,2.58
2022-09-11T12:14:00.772Z,0.93
2022-09-11T12:16:33.926Z,1.60
2022-09-11T12:19:05.809Z,0.65
2022-09-11T12:21:41.884Z,1.23
2022-09-11T12:24:18.631Z,1.35
2022-09-11T12:26:46.945Z,1.00
2022-09-11T12:29:53.798Z,2.83
2022-09-11T12:32:44.599Z,1.17
2022-09-11T12:35:30.499Z,1.15
2022-09-11T12:38:03.163Z,0.70
2022-09-11T12:40:39.075Z,0.52
2022-09-11T12:43:28.516Z,0.60
2022-09-11T12:45:58.171Z,2.25
2022-09-11T12:48:37.210Z,1.65
2022-09-11T12:51:07.333Z,1.20
2022-09-11T12:53:38.231Z,1.60
2022-09-11T12:56:08.460Z,0.77
2022-09-11T12:58:40.675Z,0.68
2022-09-11T13:01:18.707Z,0.98
2022-09-11T13:03:59.458Z,4.13
2022-09-11T13:06:38.442Z,0.75
2022-09-11T13:09:08.109Z,0.85
2022-09-11T13:11:42.599Z,1.98
2022-09-11T13:14:52.159Z,2.50
2022-09-11T13:17:26.906Z,2.30
2022-09-11T13:20:10.551Z,1.20
2022-09-11T13:22:39.338Z,5.05
2022-09-11T13:25:14.679Z,2.70
2022-09-11T13:27:45.211Z,2.38
2022-09-11T13:30:15.824Z,1.27
2022-09-11T13:32:47.294Z,1.52
2022-09-11T13:35:19.596Z,0.50
2022-09-11T13:37:54.412Z,0.55
2022-09-11T13:40:28.048Z,0.55
2022-09-11T13:42:57.239Z,0.30
2022-09-11T13:45:26.270Z,1.27
2022-09-11T13:47:56.116Z,3.17
2022-09-11T13:50:24.661Z,3.53
2022-09-11T13:52:55.216Z,4.25
2022-09-11T13:55:26.825Z,1.45
2022-09-11T13:57:58.685Z,0.75
2022-09-11T14:00:41.564Z,2.90
2022-09-11T14:03:20.145Z,0.45
2022-09-11T14:05:51.351Z,0.43
2022-09-11T14:08:24.992Z,0.93
2022-09-11T14:10:56.344Z,9.52
2022-09-11T14:13:28.623Z,5.60
2022-09-11T14:16:00.346Z,2.00
2022-09-11T14:18:35.710Z,0.70
2022-09-11T14:21:07.427Z,0.90
2022-09-11T14:23:43.513Z,0.60
2022-09-11T14:26:17.001Z,1.13
2022-09-11T14:29:02.564Z,0.63
2022-09-11T14:31:34.950Z,1.35
2022-09-11T14:34:18.670Z,0.30
2022-09-11T14:36:53.329Z,0.57
2022-09-11T14:39:27.618Z,0.60
2022-09-11T14:44:26.428Z,0.88
2022-09-11T14:46:55.243Z,0.63
2022-09-11T14:49:24.941Z,0.43
2022-09-11T14:51:59.126Z,0.30
2022-09-11T14:56:59.472Z,0.50
2022-09-11T14:59:29.558Z,0.60
2022-09-11T15:01:58.440Z,0.57
2022-09-11T15:04:29.641Z,0.40
2022-09-11T15:06:59.730Z,0.47
2022-09-11T15:09:27.969Z,1.10
2022-09-11T15:11:55.938Z,0.43
2022-09-11T15:14:45.134Z,1.85
2022-09-11T15:17:15.844Z,4.47
2022-09-11T15:19:49.622Z,3.15
2022-09-11T15:22:18.394Z,1.98
2022-09-11T15:24:48.922Z,0.77
2022-09-11T15:27:17.203Z,0.63
2022-09-11T15:29:45.776Z,0.60
2022-09-11T15:32:14.429Z,0.60
2022-09-11T15:34:43.878Z,0.85
2022-09-11T15:37:13.743Z,1.45
2022-09-11T15:39:41.713Z,2.08
2022-09-11T15:42:10.836Z,2.17
2022-09-11T15:44:39.014Z,1.92
2022-09-11T15:47:07.349Z,1.38
2022-09-11T15:49:40.917Z,1.17
2022-09-11T15:52:09.071Z,1.23
2022-09-11T15:54:38.400Z,0.52
2022-09-11T15:57:06.725Z,0.40
2022-09-11T15:59:35.079Z,0.40
2022-09-11T16:02:03.210Z,0.47
2022-09-11T16:04:32.779Z,0.70
2022-09-11T16:07:01.127Z,0.40
2022-09-11T16:09:31.887Z,0.50
2022-09-11T16:12:02.227Z,0.50
2022-09-11T16:14:37.664Z,0.60
2022-09-11T16:19:35.799Z,5.00
2022-09-11T16:22:05.773Z,7.95
2022-09-11T16:24:37.616Z,5.43
2022-09-11T16:27:09.244Z,4.18
2022-09-11T16:30:09.427Z,1.55
2022-09-11T16:32:33.126Z,2.42
2022-09-11T16:35:01.357Z,0.85
2022-09-11T16:37:32.750Z,0.73
2022-09-11T16:40:02.092Z,0.50
2022-09-11T16:42:31.618Z,0.60
2022-09-11T16:44:59.708Z,0.80
2022-09-11T16:47:30.459Z,0.70
2022-09-11T16:50:07.408Z,0.98
2022-09-11T16:52:36.079Z,1.67
2022-09-11T16:55:04.277Z,1.85
2022-09-11T16:57:34.466Z,5.03
2022-09-11T17:00:03.406Z,4.95
2022-09-11T17:02:31.365Z,4.00
2022-09-11T17:04:59.523Z,1.70
2022-09-11T17:07:28.398Z,1.40
2022-09-11T17:09:56.409Z,0.75
2022-09-11T17:12:24.617Z,0.77
2022-09-11T17:14:54.722Z,0.60
2022-09-11T17:17:23.066Z,1.10
2022-09-11T17:19:51.205Z,0.43
2022-09-11T17:22:19.459Z,2.97
2022-09-11T17:24:47.445Z,4.13
2022-09-11T17:27:15.544Z,4.85
2022-09-11T17:29:44.680Z,8.23
2022-09-11T17:32:27.878Z,13.30
2022-09-11T17:34:58.196Z,7.53
2022-09-11T17:37:27.364Z,7.03
2022-09-11T17:39:55.647Z,4.00
2022-09-11T17:42:24.356Z,2.47
2022-09-11T17:44:52.362Z,1.48
2022-09-11T17:47:22.920Z,1.10
2022-09-11T17:49:51.053Z,1.75
2022-09-11T17:52:20.323Z,1.00
2022-09-11T17:54:49.101Z,1.48
2022-09-11T17:57:17.516Z,1.17
2022-09-11T17:59:45.482Z,0.60
2022-09-11T18:02:15.006Z,0.93
2022-09-11T18:04:44.870Z,1.33
2022-09-11T18:07:13.022Z,0.70
2022-09-11T18:09:41.447Z,2.17
2022-09-11T18:12:10.024Z,0.60
2022-09-11T18:14:38.923Z,0.50
2022-09-11T18:17:07.547Z,1.00
2022-09-11T18:19:36.006Z,0.77
2022-09-11T18:22:06.068Z,0.85
2022-09-11T18:24:34.533Z,2.10
2022-09-11T18:27:02.689Z,1.58
2022-09-11T18:29:30.994Z,1.13
2022-09-11T18:32:00.251Z,1.40
2022-09-11T18:34:29.435Z,1.73
2022-09-11T18:36:57.491Z,1.45
2022-09-11T18:39:27.186Z,2.45
2022-09-11T18:41:55.357Z,1.67
2022-09-11T18:44:24.574Z,1.60
2022-09-11T18:46:54.230Z,3.78
2022-09-11T18:49:22.659Z,10.32
2022-09-11T18:51:51.154Z,9.93
2022-09-11T18:54:21.372Z,5.57
2022-09-11T18:56:51.656Z,4.22
2022-09-11T18:59:20.435Z,2.58
2022-09-11T19:01:49.088Z,1.88
2022-09-11T19:04:17.398Z,1.67
2022-09-11T19:06:46.281Z,2.05
2022-09-11T19:09:14.874Z,2.25
2022-09-11T19:11:43.529Z,1.90
2022-09-11T19:14:13.881Z,2.15
2022-09-11T19:16:42.463Z,2.20
2022-09-11T19:19:10.718Z,2.80
2022-09-11T19:21:38.968Z,2.33
2022-09-11T19:24:07.735Z,3.17
2022-09-11T19:26:38.230Z,1.85
2022-09-11T19:29:06.812Z,1.55
2022-09-11T19:31:36.825Z,2.47
2022-09-11T19:34:05.064Z,2.00
2022-09-11T19:36:36.038Z,1.83
2022-09-11T19:39:05.010Z,1.75
2022-09-11T19:41:35.059Z,2.05
2022-09-11T19:44:05.113Z,1.75
2022-09-11T19:46:34.776Z,1.60
2022-09-11T19:49:05.707Z,2.67
2022-09-11T19:51:36.070Z,3.38
2022-09-11T19:54:05.799Z,1.75
2022-09-11T19:56:36.349Z,1.52
2022-09-11T19:59:05.144Z,1.90
2022-09-11T20:01:33.206Z,2.72
2022-09-11T20:04:01.726Z,1.30
2022-09-11T20:06:32.840Z,1.33
2022-09-11T20:11:50.173Z,3.17
2022-09-11T20:14:18.242Z,2.40
2022-09-11T20:16:46.468Z,2.75
2022-09-11T20:19:15.150Z,3.97
2022-09-11T20:21:44.654Z,2.22
2022-09-11T20:24:12.870Z,2.80
2022-09-11T20:26:40.860Z,2.10
2022-09-11T20:29:13.741Z,2.38
2022-09-11T20:31:47.364Z,2.80
2022-09-11T20:36:46.205Z,2.20
2022-09-11T20:39:15.540Z,3.15
2022-09-11T20:41:44.070Z,3.55
2022-09-11T20:44:12.571Z,2.97
2022-09-11T20:46:40.900Z,2.45
2022-09-11T20:49:09.018Z,3.15
2022-09-11T20:51:37.589Z,4.28
2022-09-11T20:54:07.064Z,3.25
2022-09-11T20:56:35.153Z,3.35
2022-09-11T20:59:03.583Z,2.72
2022-09-11T21:01:33.438Z,2.28
2022-09-11T21:04:04.055Z,3.50
2022-09-11T21:06:34.151Z,2.80
2022-09-11T21:09:05.687Z,3.75
2022-09-11T21:11:36.141Z,3.03
2022-09-11T21:14:04.742Z,2.53
2022-09-11T21:16:32.988Z,9.05
2022-09-11T21:19:02.514Z,5.70
2022-09-11T21:21:31.543Z,3.88
2022-09-11T21:24:01.899Z,3.28
2022-09-11T21:26:31.098Z,4.55
2022-09-11T21:29:02.401Z,3.78
2022-09-11T21:31:31.217Z,2.40
2022-09-11T21:34:00.183Z,2.80
2022-09-11T21:36:29.065Z,3.45
2022-09-11T21:38:57.147Z,3.20
2022-09-11T21:41:25.468Z,3.22
2022-09-11T21:43:53.540Z,2.70
2022-09-11T21:46:23.060Z,2.97
2022-09-11T21:48:51.126Z,3.22
2022-09-11T21:51:21.027Z,2.58
2022-09-11T21:53:50.574Z,4.20
2022-09-11T21:56:21.467Z,3.38
2022-09-11T21:58:51.261Z,2.20
2022-09-11T22:01:19.987Z,2.58
2022-09-11T22:03:49.713Z,3.08
2022-09-11T22:06:18.649Z,3.08
2022-09-11T22:08:47.451Z,3.10
2022-09-11T22:11:16.614Z,2.85
2022-09-11T22:13:45.476Z,4.55
2022-09-11T22:16:16.101Z,3.50
2022-09-11T22:18:44.582Z,3.20
2022-09-11T22:21:14.082Z,3.50
2022-09-11T22:23:42.094Z,3.13
2022-09-11T22:26:12.626Z,2.65
2022-09-11T22:28:41.617Z,3.03
2022-09-11T22:31:10.658Z,3.35
2022-09-11T22:33:39.817Z,3.10
2022-09-11T22:36:09.797Z,3.63
2022-09-11T22:38:39.519Z,3.40
2022-09-11T22:41:08.036Z,2.97
2022-09-11T22:43:36.612Z,3.92
2022-09-11T22:46:05.414Z,3.00
2022-09-11T22:48:33.845Z,2.97
2022-09-11T22:51:02.277Z,3.45
2022-09-11T22:53:31.192Z,4.60
2022-09-11T22:56:00.853Z,3.53
2022-09-11T22:58:30.947Z,3.83
2022-09-11T23:01:00.910Z,5.13
2022-09-11T23:03:29.036Z,4.05
2022-09-11T23:06:17.526Z,3.90
2022-09-11T23:08:46.995Z,3.78
2022-09-11T23:11:19.804Z,4.88
2022-09-11T23:13:49.051Z,4.20
2022-09-11T23:16:20.679Z,4.15
2022-09-11T23:18:49.323Z,3.55
2022-09-11T23:21:17.521Z,3.95
2022-09-11T23:23:45.787Z,3.60
2022-09-11T23:26:16.562Z,3.92
2022-09-11T23:28:44.847Z,5.15
2022-09-11T23:31:13.648Z,3.60
2022-09-11T23:33:42.201Z,3.42
2022-09-11T23:36:13.097Z,3.88
2022-09-11T23:38:41.790Z,3.80
2022-09-11T23:41:10.005Z,4.05
2022-09-11T23:43:39.412Z,3.90
2022-09-11T23:46:08.040Z,3.75
2022-09-11T23:48:36.173Z,3.85
2022-09-11T23:51:05.587Z,3.85
2022-09-11T23:53:33.687Z,3.85
2022-09-11T23:56:01.921Z,3.50
2022-09-11T23:58:29.945Z,3.33
